Terminal Aerodrome Forecast
Issued by NWS Mt. Holly, NJ

Home | Current Version | Previous Version | Text Only | Print | Product List | Glossary On
Versions: 1 2 3 4 5 6 7 8 9 10 11 12 13 14 15 16 17 18 19
000
FTUS41 KPHI 300142 AAA
TAFRDG
TAF AMD
KRDG 300142Z 3002/3024 18005KT P6SM SCT250
     FM300300 17004KT P6SM BKN150
     FM300800 21008KT P6SM -RASN FEW025 BKN040
     FM301500 27012G20KT P6SM BKN040
     FM302100 29015G25KT P6SM BKN100=

USA.gov is the U.S. government's official web portal to all federal, state and local government web resources and services.